createdAt,value
2023-04-18T00:05:02.262Z,12.20
2023-04-18T00:15:23.979Z,12.00
2023-04-18T00:25:46.595Z,11.70
2023-04-18T00:36:08.248Z,11.50
2023-04-18T00:46:31.045Z,11.50
2023-04-18T00:56:52.661Z,11.40
2023-04-18T01:07:15.776Z,11.20
2023-04-18T01:17:38.450Z,11.10
2023-04-18T01:28:02.517Z,11.00
2023-04-18T01:38:25.459Z,10.90
2023-04-18T01:48:49.659Z,10.80
2023-04-18T01:59:13.406Z,10.90
2023-04-18T02:09:36.453Z,11.00
2023-04-18T02:19:58.272Z,11.10
2023-04-18T02:30:21.153Z,11.10
2023-04-18T02:40:43.673Z,11.20
2023-04-18T02:51:07.553Z,11.20
2023-04-18T03:01:31.502Z,11.20
2023-04-18T03:12:14.752Z,11.30
2023-04-18T03:22:37.037Z,11.30
2023-04-18T03:33:02.710Z,11.20
2023-04-18T03:43:25.164Z,11.20
2023-04-18T03:53:48.474Z,11.20
2023-04-18T04:04:15.186Z,11.10
2023-04-18T04:14:38.357Z,11.10
2023-04-18T04:25:01.377Z,11.20
2023-04-18T04:35:32.066Z,11.60
2023-04-18T04:45:54.664Z,11.30
2023-04-18T04:56:20.542Z,11.50
2023-04-18T05:06:42.466Z,11.90
2023-04-18T05:17:05.400Z,11.90
2023-04-18T05:27:27.301Z,12.50
2023-04-18T05:37:57.223Z,12.10
2023-04-18T05:48:18.945Z,12.00
2023-04-18T05:58:41.742Z,12.20
2023-04-18T06:09:03.497Z,12.20
2023-04-18T06:19:26.575Z,12.50
2023-04-18T06:29:48.038Z,12.40
2023-04-18T06:40:12.028Z,12.50
2023-04-18T06:50:33.392Z,13.10
2023-04-18T07:00:56.595Z,13.00
2023-04-18T07:11:18.671Z,13.30
2023-04-18T07:21:43.637Z,13.30
2023-04-18T07:32:34.664Z,13.30
2023-04-18T07:43:07.991Z,13.40
2023-04-18T07:53:29.247Z,14.10
2023-04-18T08:03:53.613Z,14.00
2023-04-18T08:14:15.372Z,14.00
2023-04-18T08:24:38.612Z,13.70
2023-04-18T08:35:00.788Z,13.80
2023-04-18T08:45:24.161Z,14.40
2023-04-18T08:55:47.591Z,14.70
2023-04-18T09:06:13.579Z,15.10
2023-04-18T09:16:47.730Z,15.80
2023-04-18T09:27:14.258Z,15.40
2023-04-18T09:37:36.286Z,16.20
2023-04-18T09:48:04.173Z,15.90
2023-04-18T09:58:26.911Z,16.00
2023-04-18T10:08:53.536Z,16.40
2023-04-18T10:19:23.581Z,16.50
2023-04-18T10:29:49.864Z,17.40
2023-04-18T10:40:12.216Z,17.10
2023-04-18T10:50:35.275Z,17.50
2023-04-18T11:00:57.742Z,17.70
2023-04-18T11:11:20.863Z,17.70
2023-04-18T11:21:42.580Z,17.50
2023-04-18T11:32:08.888Z,17.40
2023-04-18T11:42:33.902Z,18.10
2023-04-18T11:52:57.138Z,17.80
2023-04-18T12:03:20.836Z,18.40
2023-04-18T12:13:47.140Z,18.70
2023-04-18T12:24:16.006Z,18.40
2023-04-18T12:34:38.943Z,18.00
2023-04-18T12:45:03.369Z,18.70
2023-04-18T12:55:27.867Z,18.70
2023-04-18T13:05:51.897Z,18.60
2023-04-18T13:16:14.591Z,18.80
2023-04-18T13:26:37.836Z,18.90
2023-04-18T13:37:00.760Z,19.10
2023-04-18T13:47:22.049Z,19.10
2023-04-18T13:57:45.902Z,19.10
2023-04-18T14:08:07.468Z,19.10
2023-04-18T14:18:31.591Z,19.10
2023-04-18T14:28:53.494Z,19.20
2023-04-18T14:39:16.280Z,19.30
2023-04-18T14:49:37.788Z,19.50
2023-04-18T15:00:00.447Z,19.40
2023-04-18T15:10:22.496Z,19.50
2023-04-18T15:20:45.589Z,19.50
2023-04-18T15:31:09.149Z,19.60
2023-04-18T15:41:32.646Z,19.60
2023-04-18T15:51:54.317Z,19.50
2023-04-18T16:02:17.120Z,19.40
2023-04-18T16:12:39.521Z,19.50
2023-04-18T16:23:02.914Z,19.40
2023-04-18T16:33:25.820Z,19.30
2023-04-18T16:43:52.152Z,19.20
2023-04-18T16:54:14.116Z,19.00
2023-04-18T17:04:37.579Z,18.80
2023-04-18T17:14:59.206Z,18.60
2023-04-18T17:25:23.040Z,18.50
2023-04-18T17:35:44.581Z,18.40
2023-04-18T17:46:07.961Z,18.10
2023-04-18T17:56:30.562Z,17.90
2023-04-18T18:06:57.157Z,17.60
2023-04-18T18:17:18.802Z,17.30
2023-04-18T18:27:42.759Z,17.10
2023-04-18T18:38:04.502Z,16.80
2023-04-18T18:48:28.749Z,16.70
2023-04-18T18:58:50.231Z,16.50
2023-04-18T19:09:13.640Z,16.30
2023-04-18T19:19:36.209Z,16.20
2023-04-18T19:29:59.354Z,15.90
2023-04-18T19:40:20.929Z,15.50
2023-04-18T19:50:47.246Z,15.00
2023-04-18T20:01:09.937Z,14.80
2023-04-18T20:11:33.290Z,14.60
2023-04-18T20:21:54.835Z,14.40
2023-04-18T20:32:17.592Z,14.10
2023-04-18T20:42:39.653Z,13.90
2023-04-18T20:53:03.948Z,13.80
2023-04-18T21:03:26.177Z,13.60
2023-04-18T21:13:49.272Z,13.40
2023-04-18T21:24:11.116Z,13.30
2023-04-18T21:34:33.932Z,13.00
2023-04-18T21:44:55.807Z,12.80
2023-04-18T21:55:18.770Z,12.60
2023-04-18T22:05:40.638Z,12.50
2023-04-18T22:16:04.073Z,12.30
2023-04-18T22:26:25.773Z,12.20
2023-04-18T22:36:48.373Z,12.20
2023-04-18T22:47:10.234Z,12.30
2023-04-18T22:57:33.074Z,12.10
2023-04-18T23:07:54.560Z,12.00
2023-04-18T23:18:17.664Z,12.00
2023-04-18T23:28:39.272Z,12.00
2023-04-18T23:39:02.166Z,12.00
2023-04-18T23:49:23.705Z,12.10
2023-04-18T23:59:46.226Z,12.10
